Holder, Florida
Current Conditions -  °F | °C
As of 10:55 PM on Tuesday 25 Nov 2014 (Local Time) from KCGC Reporting Station
Overcast Overcast  
Wind Chill: 68°   Ceiling: 400
Heat Index: 68°   Visibility: 10mi
Dew Point: 68°   Wind: 0mph
Humidity: 100%   Direction: NA
Pressure: 29.87"   Gusts: NA
Location:  28.97°N, 82.42°W
Report Text: KCGC 260355Z AUTO 00000KT 10SM OVC004 20/20 A2987 RMK AO2 LTG DSNT S
Loading
Personal Weather Stations






























Interactive Weather Map New forecast layout! Learn more

10-Day Weather Forecast

Advertisements
Track Severe Weather on mobile